sensor_id;sensor_type;location;lat;lon;timestamp;P1;durP1;ratioP1;P2;durP2;ratioP2
10013;SDS011;45684;48.358;10.746;2024-02-04T00:01:34;193.70;;;185.50;;
10013;SDS011;45684;48.358;10.746;2024-02-04T00:04:02;179.43;;;171.77;;
10013;SDS011;45684;48.358;10.746;2024-02-04T00:06:31;189.00;;;181.03;;
10013;SDS011;45684;48.358;10.746;2024-02-04T00:08:59;203.20;;;194.67;;
10013;SDS011;45684;48.358;10.746;2024-02-04T00:11:27;182.57;;;175.03;;
10013;SDS011;45684;48.358;10.746;2024-02-04T00:13:55;185.80;;;178.30;;
10013;SDS011;45684;48.358;10.746;2024-02-04T00:16:22;191.93;;;184.40;;
10013;SDS011;45684;48.358;10.746;2024-02-04T00:18:52;166.97;;;160.27;;
10013;SDS011;45684;48.358;10.746;2024-02-04T00:21:20;174.10;;;167.23;;
10013;SDS011;45684;48.358;10.746;2024-02-04T00:23:48;184.77;;;177.37;;
10013;SDS011;45684;48.358;10.746;2024-02-04T00:26:15;159.10;;;152.77;;
10013;SDS011;45684;48.358;10.746;2024-02-04T00:28:43;175.43;;;168.50;;
10013;SDS011;45684;48.358;10.746;2024-02-04T00:31:11;167.97;;;161.27;;
10013;SDS011;45684;48.358;10.746;2024-02-04T00:33:39;172.57;;;165.63;;
10013;SDS011;45684;48.358;10.746;2024-02-04T00:36:08;156.87;;;150.60;;
10013;SDS011;45684;48.358;10.746;2024-02-04T00:38:36;147.83;;;141.80;;
10013;SDS011;45684;48.358;10.746;2024-02-04T00:41:04;138.27;;;132.27;;
10013;SDS011;45684;48.358;10.746;2024-02-04T00:43:32;116.47;;;111.67;;
10013;SDS011;45684;48.358;10.746;2024-02-04T00:46:00;147.80;;;141.77;;
10013;SDS011;45684;48.358;10.746;2024-02-04T00:48:28;149.10;;;143.07;;
10013;SDS011;45684;48.358;10.746;2024-02-04T00:50:55;160.83;;;154.43;;
10013;SDS011;45684;48.358;10.746;2024-02-04T00:53:25;156.97;;;150.50;;
10013;SDS011;45684;48.358;10.746;2024-02-04T00:55:54;170.90;;;163.87;;
10013;SDS011;45684;48.358;10.746;2024-02-04T00:58:22;161.97;;;155.33;;
10013;SDS011;45684;48.358;10.746;2024-02-04T01:00:50;177.27;;;168.50;;
10013;SDS011;45684;48.358;10.746;2024-02-04T01:03:18;199.03;;;188.07;;
10013;SDS011;45684;48.358;10.746;2024-02-04T01:05:46;220.27;;;206.87;;
10013;SDS011;45684;48.358;10.746;2024-02-04T01:08:14;237.97;;;223.10;;
10013;SDS011;45684;48.358;10.746;2024-02-04T01:10:43;214.23;;;201.30;;
10013;SDS011;45684;48.358;10.746;2024-02-04T01:13:11;210.37;;;197.20;;
10013;SDS011;45684;48.358;10.746;2024-02-04T01:15:39;206.67;;;196.60;;
10013;SDS011;45684;48.358;10.746;2024-02-04T01:18:07;220.63;;;208.47;;
10013;SDS011;45684;48.358;10.746;2024-02-04T01:20:34;200.23;;;190.00;;
10013;SDS011;45684;48.358;10.746;2024-02-04T01:23:03;206.40;;;195.43;;
10013;SDS011;45684;48.358;10.746;2024-02-04T01:25:31;219.07;;;204.30;;
10013;SDS011;45684;48.358;10.746;2024-02-04T01:28:00;227.93;;;208.37;;
10013;SDS011;45684;48.358;10.746;2024-02-04T01:30:28;235.80;;;213.33;;
10013;SDS011;45684;48.358;10.746;2024-02-04T01:32:57;177.87;;;164.13;;
10013;SDS011;45684;48.358;10.746;2024-02-04T01:35:25;204.00;;;190.03;;
10013;SDS011;45684;48.358;10.746;2024-02-04T01:37:53;347.47;;;283.67;;
10013;SDS011;45684;48.358;10.746;2024-02-04T01:40:21;294.40;;;270.47;;
10013;SDS011;45684;48.358;10.746;2024-02-04T01:42:49;272.80;;;252.80;;
10013;SDS011;45684;48.358;10.746;2024-02-04T01:45:18;292.60;;;269.13;;
10013;SDS011;45684;48.358;10.746;2024-02-04T01:47:46;263.73;;;246.00;;
10013;SDS011;45684;48.358;10.746;2024-02-04T01:50:14;299.27;;;273.97;;
10013;SDS011;45684;48.358;10.746;2024-02-04T01:52:43;221.47;;;205.53;;
10013;SDS011;45684;48.358;10.746;2024-02-04T01:55:12;243.23;;;222.07;;
10013;SDS011;45684;48.358;10.746;2024-02-04T01:57:40;295.47;;;268.60;;
10013;SDS011;45684;48.358;10.746;2024-02-04T02:00:09;243.53;;;221.13;;
10013;SDS011;45684;48.358;10.746;2024-02-04T02:02:40;215.87;;;200.17;;
10013;SDS011;45684;48.358;10.746;2024-02-04T02:05:08;303.30;;;266.70;;
10013;SDS011;45684;48.358;10.746;2024-02-04T02:07:37;258.93;;;238.27;;
10013;SDS011;45684;48.358;10.746;2024-02-04T02:10:05;292.70;;;262.73;;
10013;SDS011;45684;48.358;10.746;2024-02-04T02:12:39;316.63;;;264.73;;
10013;SDS011;45684;48.358;10.746;2024-02-04T02:15:10;337.40;;;299.23;;
10013;SDS011;45684;48.358;10.746;2024-02-04T02:17:50;246.27;;;233.57;;
10013;SDS011;45684;48.358;10.746;2024-02-04T02:20:21;255.63;;;242.20;;
10013;SDS011;45684;48.358;10.746;2024-02-04T02:22:56;259.07;;;245.03;;
10013;SDS011;45684;48.358;10.746;2024-02-04T02:25:29;229.20;;;217.53;;
10013;SDS011;45684;48.358;10.746;2024-02-04T02:27:58;224.70;;;213.13;;
10013;SDS011;45684;48.358;10.746;2024-02-04T02:30:26;217.73;;;206.97;;
10013;SDS011;45684;48.358;10.746;2024-02-04T02:32:54;225.70;;;214.30;;
10013;SDS011;45684;48.358;10.746;2024-02-04T02:35:22;273.77;;;258.70;;
10013;SDS011;45684;48.358;10.746;2024-02-04T02:37:52;264.83;;;250.73;;
10013;SDS011;45684;48.358;10.746;2024-02-04T02:40:26;239.70;;;227.23;;
10013;SDS011;45684;48.358;10.746;2024-02-04T02:43:03;249.70;;;236.40;;
10013;SDS011;45684;48.358;10.746;2024-02-04T02:45:31;268.47;;;254.00;;
10013;SDS011;45684;48.358;10.746;2024-02-04T02:48:01;257.93;;;244.50;;
10013;SDS011;45684;48.358;10.746;2024-02-04T02:50:31;276.47;;;261.80;;
10013;SDS011;45684;48.358;10.746;2024-02-04T02:52:59;277.93;;;262.47;;
10013;SDS011;45684;48.358;10.746;2024-02-04T02:55:27;279.20;;;264.07;;
10013;SDS011;45684;48.358;10.746;2024-02-04T02:57:56;270.27;;;255.37;;
10013;SDS011;45684;48.358;10.746;2024-02-04T03:00:24;273.70;;;258.37;;
10013;SDS011;45684;48.358;10.746;2024-02-04T03:02:52;276.47;;;260.37;;
10013;SDS011;45684;48.358;10.746;2024-02-04T03:05:20;294.17;;;277.83;;
10013;SDS011;45684;48.358;10.746;2024-02-04T03:07:48;290.90;;;273.53;;
10013;SDS011;45684;48.358;10.746;2024-02-04T03:10:16;283.47;;;268.17;;
10013;SDS011;45684;48.358;10.746;2024-02-04T03:12:44;266.03;;;252.23;;
10013;SDS011;45684;48.358;10.746;2024-02-04T03:15:13;272.77;;;258.13;;
10013;SDS011;45684;48.358;10.746;2024-02-04T03:17:42;247.67;;;234.67;;
10013;SDS011;45684;48.358;10.746;2024-02-04T03:20:10;268.60;;;254.27;;
10013;SDS011;45684;48.358;10.746;2024-02-04T03:22:39;251.83;;;238.93;;
10013;SDS011;45684;48.358;10.746;2024-02-04T03:25:06;240.50;;;227.67;;
10013;SDS011;45684;48.358;10.746;2024-02-04T03:27:35;249.83;;;236.53;;
10013;SDS011;45684;48.358;10.746;2024-02-04T03:30:03;251.47;;;238.60;;
10013;SDS011;45684;48.358;10.746;2024-02-04T03:32:34;242.83;;;230.00;;
10013;SDS011;45684;48.358;10.746;2024-02-04T03:35:02;221.53;;;210.10;;
10013;SDS011;45684;48.358;10.746;2024-02-04T03:37:32;190.00;;;180.87;;
10013;SDS011;45684;48.358;10.746;2024-02-04T03:40:00;195.07;;;185.87;;
10013;SDS011;45684;48.358;10.746;2024-02-04T03:42:28;206.97;;;197.30;;
10013;SDS011;45684;48.358;10.746;2024-02-04T03:44:56;182.90;;;174.77;;
10013;SDS011;45684;48.358;10.746;2024-02-04T03:47:24;184.97;;;176.80;;
10013;SDS011;45684;48.358;10.746;2024-02-04T03:49:53;180.23;;;172.40;;
10013;SDS011;45684;48.358;10.746;2024-02-04T03:52:21;193.53;;;185.20;;
10013;SDS011;45684;48.358;10.746;2024-02-04T03:54:49;193.40;;;185.03;;
10013;SDS011;45684;48.358;10.746;2024-02-04T03:57:17;201.87;;;193.03;;
10013;SDS011;45684;48.358;10.746;2024-02-04T03:59:45;186.00;;;177.73;;
10013;SDS011;45684;48.358;10.746;2024-02-04T04:02:12;208.33;;;197.97;;
10013;SDS011;45684;48.358;10.746;2024-02-04T04:04:40;193.60;;;183.30;;
10013;SDS011;45684;48.358;10.746;2024-02-04T04:07:11;191.50;;;181.30;;
10013;SDS011;45684;48.358;10.746;2024-02-04T04:09:39;187.73;;;178.07;;
10013;SDS011;45684;48.358;10.746;2024-02-04T04:12:07;180.90;;;171.53;;
10013;SDS011;45684;48.358;10.746;2024-02-04T04:14:35;209.07;;;198.37;;
10013;SDS011;45684;48.358;10.746;2024-02-04T04:17:02;221.10;;;209.73;;
10013;SDS011;45684;48.358;10.746;2024-02-04T04:19:30;218.77;;;207.40;;
10013;SDS011;45684;48.358;10.746;2024-02-04T04:21:59;260.77;;;246.90;;
10013;SDS011;45684;48.358;10.746;2024-02-04T04:24:29;258.87;;;245.30;;
10013;SDS011;45684;48.358;10.746;2024-02-04T04:26:57;261.67;;;248.23;;
10013;SDS011;45684;48.358;10.746;2024-02-04T04:29:24;264.60;;;250.67;;
10013;SDS011;45684;48.358;10.746;2024-02-04T04:31:52;225.67;;;214.03;;
10013;SDS011;45684;48.358;10.746;2024-02-04T04:34:20;214.00;;;203.10;;
10013;SDS011;45684;48.358;10.746;2024-02-04T04:36:48;201.43;;;191.47;;
10013;SDS011;45684;48.358;10.746;2024-02-04T04:39:16;193.57;;;184.47;;
10013;SDS011;45684;48.358;10.746;2024-02-04T04:41:45;197.17;;;188.50;;
10013;SDS011;45684;48.358;10.746;2024-02-04T04:44:13;199.50;;;190.77;;
10013;SDS011;45684;48.358;10.746;2024-02-04T04:46:41;186.30;;;178.13;;
10013;SDS011;45684;48.358;10.746;2024-02-04T04:49:09;188.97;;;180.87;;
10013;SDS011;45684;48.358;10.746;2024-02-04T04:51:37;176.97;;;169.37;;
10013;SDS011;45684;48.358;10.746;2024-02-04T04:54:05;199.73;;;191.00;;
10013;SDS011;45684;48.358;10.746;2024-02-04T04:56:37;209.67;;;200.63;;
10013;SDS011;45684;48.358;10.746;2024-02-04T04:59:10;209.50;;;200.23;;
10013;SDS011;45684;48.358;10.746;2024-02-04T05:01:44;263.13;;;252.17;;
10013;SDS011;45684;48.358;10.746;2024-02-04T05:04:13;196.57;;;188.07;;
10013;SDS011;45684;48.358;10.746;2024-02-04T05:06:41;206.53;;;197.43;;
10013;SDS011;45684;48.358;10.746;2024-02-04T05:09:09;349.23;;;333.80;;
10013;SDS011;45684;48.358;10.746;2024-02-04T05:11:37;195.50;;;187.07;;
10013;SDS011;45684;48.358;10.746;2024-02-04T05:14:05;199.30;;;190.67;;
10013;SDS011;45684;48.358;10.746;2024-02-04T05:16:34;191.50;;;183.20;;
10013;SDS011;45684;48.358;10.746;2024-02-04T05:19:03;158.30;;;151.53;;
10013;SDS011;45684;48.358;10.746;2024-02-04T05:21:31;136.20;;;130.70;;
10013;SDS011;45684;48.358;10.746;2024-02-04T05:23:59;125.00;;;119.80;;
10013;SDS011;45684;48.358;10.746;2024-02-04T05:26:26;113.63;;;108.80;;
10013;SDS011;45684;48.358;10.746;2024-02-04T05:28:54;100.53;;;96.33;;
10013;SDS011;45684;48.358;10.746;2024-02-04T05:31:22;111.23;;;106.57;;
10013;SDS011;45684;48.358;10.746;2024-02-04T05:33:52;116.33;;;111.53;;
10013;SDS011;45684;48.358;10.746;2024-02-04T05:36:20;126.77;;;121.27;;
10013;SDS011;45684;48.358;10.746;2024-02-04T05:38:47;154.00;;;147.47;;
10013;SDS011;45684;48.358;10.746;2024-02-04T05:41:15;161.10;;;154.37;;
10013;SDS011;45684;48.358;10.746;2024-02-04T05:43:43;204.50;;;195.67;;
10013;SDS011;45684;48.358;10.746;2024-02-04T05:46:13;235.87;;;225.47;;
10013;SDS011;45684;48.358;10.746;2024-02-04T05:48:41;196.30;;;187.47;;
10013;SDS011;45684;48.358;10.746;2024-02-04T05:51:12;237.60;;;226.87;;
10013;SDS011;45684;48.358;10.746;2024-02-04T05:53:40;208.53;;;199.27;;
10013;SDS011;45684;48.358;10.746;2024-02-04T05:56:08;181.27;;;173.53;;
10013;SDS011;45684;48.358;10.746;2024-02-04T05:58:36;213.30;;;203.97;;
10013;SDS011;45684;48.358;10.746;2024-02-04T06:01:04;184.83;;;177.07;;
10013;SDS011;45684;48.358;10.746;2024-02-04T06:03:32;199.63;;;190.60;;
10013;SDS011;45684;48.358;10.746;2024-02-04T06:06:00;177.03;;;169.50;;
10013;SDS011;45684;48.358;10.746;2024-02-04T06:08:29;185.10;;;177.30;;
10013;SDS011;45684;48.358;10.746;2024-02-04T06:10:57;153.93;;;146.90;;
10013;SDS011;45684;48.358;10.746;2024-02-04T06:13:25;154.47;;;147.87;;
10013;SDS011;45684;48.358;10.746;2024-02-04T06:15:53;151.37;;;144.80;;
10013;SDS011;45684;48.358;10.746;2024-02-04T06:18:21;146.53;;;140.17;;
10013;SDS011;45684;48.358;10.746;2024-02-04T06:20:49;167.93;;;160.70;;
10013;SDS011;45684;48.358;10.746;2024-02-04T06:23:16;165.47;;;158.40;;
10013;SDS011;45684;48.358;10.746;2024-02-04T06:25:47;155.10;;;148.53;;
10013;SDS011;45684;48.358;10.746;2024-02-04T06:28:15;165.23;;;158.30;;
10013;SDS011;45684;48.358;10.746;2024-02-04T06:30:43;182.00;;;174.43;;
10013;SDS011;45684;48.358;10.746;2024-02-04T06:33:11;169.03;;;161.97;;
10013;SDS011;45684;48.358;10.746;2024-02-04T06:35:39;161.93;;;155.20;;
10013;SDS011;45684;48.358;10.746;2024-02-04T06:38:07;181.10;;;173.23;;
10013;SDS011;45684;48.358;10.746;2024-02-04T06:40:35;159.00;;;152.53;;
10013;SDS011;45684;48.358;10.746;2024-02-04T06:43:04;193.97;;;185.80;;
10013;SDS011;45684;48.358;10.746;2024-02-04T06:45:32;166.17;;;159.17;;
10013;SDS011;45684;48.358;10.746;2024-02-04T06:48:00;190.67;;;181.73;;
10013;SDS011;45684;48.358;10.746;2024-02-04T06:50:29;180.17;;;172.57;;
10013;SDS011;45684;48.358;10.746;2024-02-04T06:52:57;184.97;;;176.77;;
10013;SDS011;45684;48.358;10.746;2024-02-04T06:55:25;200.67;;;191.77;;
10013;SDS011;45684;48.358;10.746;2024-02-04T06:57:53;170.73;;;163.07;;
10013;SDS011;45684;48.358;10.746;2024-02-04T07:00:22;150.97;;;144.37;;
10013;SDS011;45684;48.358;10.746;2024-02-04T07:02:50;222.93;;;213.33;;
10013;SDS011;45684;48.358;10.746;2024-02-04T07:05:18;194.03;;;185.10;;
10013;SDS011;45684;48.358;10.746;2024-02-04T07:07:48;251.43;;;240.03;;
10013;SDS011;45684;48.358;10.746;2024-02-04T07:10:16;214.70;;;204.57;;
10013;SDS011;45684;48.358;10.746;2024-02-04T07:12:45;223.70;;;213.13;;
10013;SDS011;45684;48.358;10.746;2024-02-04T07:15:13;212.37;;;199.73;;
10013;SDS011;45684;48.358;10.746;2024-02-04T07:17:42;217.33;;;205.90;;
10013;SDS011;45684;48.358;10.746;2024-02-04T07:20:10;213.47;;;201.63;;
10013;SDS011;45684;48.358;10.746;2024-02-04T07:22:38;231.33;;;218.30;;
10013;SDS011;45684;48.358;10.746;2024-02-04T07:25:06;212.00;;;194.03;;
10013;SDS011;45684;48.358;10.746;2024-02-04T07:27:35;238.60;;;217.87;;
10013;SDS011;45684;48.358;10.746;2024-02-04T07:30:03;216.47;;;200.87;;
10013;SDS011;45684;48.358;10.746;2024-02-04T07:32:31;384.00;;;299.10;;
10013;SDS011;45684;48.358;10.746;2024-02-04T07:35:02;279.83;;;257.90;;
10013;SDS011;45684;48.358;10.746;2024-02-04T07:37:30;335.37;;;242.90;;
10013;SDS011;45684;48.358;10.746;2024-02-04T07:39:59;117.37;;;110.13;;
10013;SDS011;45684;48.358;10.746;2024-02-04T07:42:27;124.77;;;118.53;;
10013;SDS011;45684;48.358;10.746;2024-02-04T07:44:55;154.30;;;140.23;;
10013;SDS011;45684;48.358;10.746;2024-02-04T07:47:23;156.60;;;142.40;;
10013;SDS011;45684;48.358;10.746;2024-02-04T07:49:50;201.00;;;169.80;;
10013;SDS011;45684;48.358;10.746;2024-02-04T07:52:20;299.83;;;221.17;;
10013;SDS011;45684;48.358;10.746;2024-02-04T07:54:48;171.03;;;160.70;;
10013;SDS011;45684;48.358;10.746;2024-02-04T07:57:16;137.80;;;128.10;;
10013;SDS011;45684;48.358;10.746;2024-02-04T07:59:43;437.30;;;389.87;;
10013;SDS011;45684;48.358;10.746;2024-02-04T08:02:11;154.30;;;143.63;;
10013;SDS011;45684;48.358;10.746;2024-02-04T08:04:39;137.67;;;131.30;;
10013;SDS011;45684;48.358;10.746;2024-02-04T08:07:08;136.87;;;130.50;;
10013;SDS011;45684;48.358;10.746;2024-02-04T08:09:37;129.67;;;122.90;;
10013;SDS011;45684;48.358;10.746;2024-02-04T08:12:05;144.80;;;137.63;;
10013;SDS011;45684;48.358;10.746;2024-02-04T08:14:33;248.10;;;229.77;;
10013;SDS011;45684;48.358;10.746;2024-02-04T08:17:01;264.10;;;245.77;;
10013;SDS011;45684;48.358;10.746;2024-02-04T08:19:29;264.70;;;249.20;;
10013;SDS011;45684;48.358;10.746;2024-02-04T08:21:57;293.00;;;271.93;;
10013;SDS011;45684;48.358;10.746;2024-02-04T08:24:27;195.40;;;186.53;;
10013;SDS011;45684;48.358;10.746;2024-02-04T08:26:57;249.10;;;232.20;;
10013;SDS011;45684;48.358;10.746;2024-02-04T08:29:25;251.87;;;235.83;;
10013;SDS011;45684;48.358;10.746;2024-02-04T08:31:53;233.47;;;217.83;;
10013;SDS011;45684;48.358;10.746;2024-02-04T08:34:21;194.53;;;184.83;;
10013;SDS011;45684;48.358;10.746;2024-02-04T08:36:50;205.50;;;195.17;;
10013;SDS011;45684;48.358;10.746;2024-02-04T08:39:18;251.07;;;238.70;;
10013;SDS011;45684;48.358;10.746;2024-02-04T08:41:46;217.13;;;206.67;;
10013;SDS011;45684;48.358;10.746;2024-02-04T08:44:15;232.50;;;220.60;;
10013;SDS011;45684;48.358;10.746;2024-02-04T08:47:00;184.27;;;175.33;;
10013;SDS011;45684;48.358;10.746;2024-02-04T08:49:29;247.67;;;236.20;;
10013;SDS011;45684;48.358;10.746;2024-02-04T08:51:57;231.50;;;220.70;;
10013;SDS011;45684;48.358;10.746;2024-02-04T08:54:25;217.07;;;206.33;;
10013;SDS011;45684;48.358;10.746;2024-02-04T08:56:53;174.50;;;165.60;;
10013;SDS011;45684;48.358;10.746;2024-02-04T08:59:22;174.87;;;166.53;;
10013;SDS011;45684;48.358;10.746;2024-02-04T09:01:51;178.03;;;169.57;;
10013;SDS011;45684;48.358;10.746;2024-02-04T09:04:19;164.33;;;156.53;;
10013;SDS011;45684;48.358;10.746;2024-02-04T09:06:48;178.57;;;169.87;;
10013;SDS011;45684;48.358;10.746;2024-02-04T09:09:16;228.03;;;216.93;;
10013;SDS011;45684;48.358;10.746;2024-02-04T09:11:44;183.93;;;174.77;;
10013;SDS011;45684;48.358;10.746;2024-02-04T09:14:11;156.47;;;148.73;;
10013;SDS011;45684;48.358;10.746;2024-02-04T09:16:41;309.30;;;293.93;;
10013;SDS011;45684;48.358;10.746;2024-02-04T09:19:09;279.20;;;266.13;;
10013;SDS011;45684;48.358;10.746;2024-02-04T09:21:37;224.63;;;213.53;;
10013;SDS011;45684;48.358;10.746;2024-02-04T09:24:05;244.23;;;232.47;;
10013;SDS011;45684;48.358;10.746;2024-02-04T09:26:33;387.23;;;366.97;;
10013;SDS011;45684;48.358;10.746;2024-02-04T09:29:01;354.73;;;336.20;;
10013;SDS011;45684;48.358;10.746;2024-02-04T09:31:29;356.10;;;338.57;;
10013;SDS011;45684;48.358;10.746;2024-02-04T09:33:58;320.37;;;303.63;;
10013;SDS011;45684;48.358;10.746;2024-02-04T09:36:26;311.17;;;294.70;;
10013;SDS011;45684;48.358;10.746;2024-02-04T09:38:54;306.70;;;290.60;;
10013;SDS011;45684;48.358;10.746;2024-02-04T09:41:22;358.50;;;339.27;;
10013;SDS011;45684;48.358;10.746;2024-02-04T09:43:51;437.20;;;414.63;;
10013;SDS011;45684;48.358;10.746;2024-02-04T09:46:20;420.13;;;399.20;;
10013;SDS011;45684;48.358;10.746;2024-02-04T09:48:48;404.17;;;384.40;;
10013;SDS011;45684;48.358;10.746;2024-02-04T09:51:20;401.43;;;381.30;;
10013;SDS011;45684;48.358;10.746;2024-02-04T09:53:49;405.27;;;384.87;;
10013;SDS011;45684;48.358;10.746;2024-02-04T09:56:21;406.30;;;386.07;;
10013;SDS011;45684;48.358;10.746;2024-02-04T09:58:50;398.57;;;378.33;;
10013;SDS011;45684;48.358;10.746;2024-02-04T10:01:19;394.53;;;374.40;;
10013;SDS011;45684;48.358;10.746;2024-02-04T10:03:49;348.50;;;330.93;;
10013;SDS011;45684;48.358;10.746;2024-02-04T10:06:17;322.57;;;307.63;;
10013;SDS011;45684;48.358;10.746;2024-02-04T10:08:47;293.73;;;280.93;;
10013;SDS011;45684;48.358;10.746;2024-02-04T10:11:15;250.53;;;239.70;;
10013;SDS011;45684;48.358;10.746;2024-02-04T10:13:44;271.03;;;259.43;;
10013;SDS011;45684;48.358;10.746;2024-02-04T10:16:12;165.60;;;158.33;;
10013;SDS011;45684;48.358;10.746;2024-02-04T10:18:41;225.07;;;215.43;;
10013;SDS011;45684;48.358;10.746;2024-02-04T10:21:16;205.20;;;196.77;;
10013;SDS011;45684;48.358;10.746;2024-02-04T10:23:47;169.90;;;162.70;;
10013;SDS011;45684;48.358;10.746;2024-02-04T10:26:16;130.43;;;125.00;;
10013;SDS011;45684;48.358;10.746;2024-02-04T10:28:46;358.47;;;339.63;;
10013;SDS011;45684;48.358;10.746;2024-02-04T10:31:14;176.40;;;168.90;;
10013;SDS011;45684;48.358;10.746;2024-02-04T10:33:43;89.27;;;85.50;;
10013;SDS011;45684;48.358;10.746;2024-02-04T10:36:12;123.43;;;118.33;;
10013;SDS011;45684;48.358;10.746;2024-02-04T10:38:39;76.33;;;73.10;;
10013;SDS011;45684;48.358;10.746;2024-02-04T10:41:09;68.43;;;65.40;;
10013;SDS011;45684;48.358;10.746;2024-02-04T10:43:42;72.37;;;69.17;;
10013;SDS011;45684;48.358;10.746;2024-02-04T10:46:12;102.27;;;97.97;;
10013;SDS011;45684;48.358;10.746;2024-02-04T10:48:44;106.30;;;101.90;;
10013;SDS011;45684;48.358;10.746;2024-02-04T10:51:18;105.97;;;101.67;;
10013;SDS011;45684;48.358;10.746;2024-02-04T10:53:53;105.80;;;101.50;;
10013;SDS011;45684;48.358;10.746;2024-02-04T10:56:25;99.73;;;95.73;;
10013;SDS011;45684;48.358;10.746;2024-02-04T10:58:57;124.80;;;119.70;;
10013;SDS011;45684;48.358;10.746;2024-02-04T11:01:29;151.77;;;145.27;;
10013;SDS011;45684;48.358;10.746;2024-02-04T11:03:58;95.70;;;91.77;;
10013;SDS011;45684;48.358;10.746;2024-02-04T11:06:27;85.17;;;81.20;;
10013;SDS011;45684;48.358;10.746;2024-02-04T11:08:57;60.87;;;58.47;;
10013;SDS011;45684;48.358;10.746;2024-02-04T11:11:28;69.20;;;66.40;;
10013;SDS011;45684;48.358;10.746;2024-02-04T11:13:57;79.03;;;76.00;;
10013;SDS011;45684;48.358;10.746;2024-02-04T11:16:38;161.10;;;154.80;;
10013;SDS011;45684;48.358;10.746;2024-02-04T11:19:20;130.33;;;124.60;;
10013;SDS011;45684;48.358;10.746;2024-02-04T11:22:10;136.93;;;130.67;;
10013;SDS011;45684;48.358;10.746;2024-02-04T11:25:03;141.93;;;134.70;;
10013;SDS011;45684;48.358;10.746;2024-02-04T11:27:46;152.23;;;144.33;;
10013;SDS011;45684;48.358;10.746;2024-02-04T11:30:15;152.57;;;144.33;;
10013;SDS011;45684;48.358;10.746;2024-02-04T11:32:43;229.90;;;217.80;;
10013;SDS011;45684;48.358;10.746;2024-02-04T11:35:11;149.13;;;141.17;;
10013;SDS011;45684;48.358;10.746;2024-02-04T11:37:40;148.70;;;141.37;;
10013;SDS011;45684;48.358;10.746;2024-02-04T11:40:13;142.90;;;135.67;;
10013;SDS011;45684;48.358;10.746;2024-02-04T11:42:42;152.17;;;143.97;;
10013;SDS011;45684;48.358;10.746;2024-02-04T11:45:12;504.77;;;481.47;;
10013;SDS011;45684;48.358;10.746;2024-02-04T11:47:41;137.13;;;129.70;;
10013;SDS011;45684;48.358;10.746;2024-02-04T11:50:09;153.10;;;145.03;;
10013;SDS011;45684;48.358;10.746;2024-02-04T11:52:38;119.67;;;113.90;;
10013;SDS011;45684;48.358;10.746;2024-02-04T11:55:12;143.00;;;135.60;;
10013;SDS011;45684;48.358;10.746;2024-02-04T11:57:43;145.27;;;138.80;;
10013;SDS011;45684;48.358;10.746;2024-02-04T12:00:15;139.23;;;133.43;;
10013;SDS011;45684;48.358;10.746;2024-02-04T12:02:43;137.27;;;131.57;;
10013;SDS011;45684;48.358;10.746;2024-02-04T12:05:11;117.30;;;112.70;;
10013;SDS011;45684;48.358;10.746;2024-02-04T12:07:40;146.13;;;139.97;;
10013;SDS011;45684;48.358;10.746;2024-02-04T12:10:10;146.20;;;140.20;;
10013;SDS011;45684;48.358;10.746;2024-02-04T12:12:39;179.33;;;171.77;;
10013;SDS011;45684;48.358;10.746;2024-02-04T12:15:07;167.77;;;160.60;;
10013;SDS011;45684;48.358;10.746;2024-02-04T12:17:37;164.93;;;157.97;;
10013;SDS011;45684;48.358;10.746;2024-02-04T12:20:05;170.20;;;162.40;;
10013;SDS011;45684;48.358;10.746;2024-02-04T12:22:33;148.27;;;141.77;;
10013;SDS011;45684;48.358;10.746;2024-02-04T12:25:01;103.27;;;99.03;;
10013;SDS011;45684;48.358;10.746;2024-02-04T12:27:30;42.20;;;40.50;;
10013;SDS011;45684;48.358;10.746;2024-02-04T12:29:58;36.37;;;34.77;;
10013;SDS011;45684;48.358;10.746;2024-02-04T12:32:27;18.33;;;17.53;;
10013;SDS011;45684;48.358;10.746;2024-02-04T12:34:56;33.10;;;31.80;;
10013;SDS011;45684;48.358;10.746;2024-02-04T12:37:24;30.37;;;29.17;;
10013;SDS011;45684;48.358;10.746;2024-02-04T12:39:53;34.43;;;32.97;;
10013;SDS011;45684;48.358;10.746;2024-02-04T12:42:21;24.20;;;23.23;;
10013;SDS011;45684;48.358;10.746;2024-02-04T12:44:49;35.60;;;34.07;;
10013;SDS011;45684;48.358;10.746;2024-02-04T12:47:18;30.60;;;29.40;;
10013;SDS011;45684;48.358;10.746;2024-02-04T12:49:46;36.17;;;34.70;;
10013;SDS011;45684;48.358;10.746;2024-02-04T12:52:20;41.03;;;39.43;;
10013;SDS011;45684;48.358;10.746;2024-02-04T12:54:48;32.47;;;31.17;;
10013;SDS011;45684;48.358;10.746;2024-02-04T12:57:22;19.63;;;18.77;;
10013;SDS011;45684;48.358;10.746;2024-02-04T12:59:50;14.33;;;13.80;;
10013;SDS011;45684;48.358;10.746;2024-02-04T13:02:18;9.30;;;8.83;;
10013;SDS011;45684;48.358;10.746;2024-02-04T13:04:47;11.10;;;10.60;;
10013;SDS011;45684;48.358;10.746;2024-02-04T13:07:18;10.40;;;9.80;;
10013;SDS011;45684;48.358;10.746;2024-02-04T13:09:56;8.33;;;7.93;;
10013;SDS011;45684;48.358;10.746;2024-02-04T13:12:25;8.37;;;7.97;;
10013;SDS011;45684;48.358;10.746;2024-02-04T13:14:53;8.23;;;7.87;;
10013;SDS011;45684;48.358;10.746;2024-02-04T13:17:21;14.40;;;13.80;;
10013;SDS011;45684;48.358;10.746;2024-02-04T13:19:49;25.80;;;24.77;;
10013;SDS011;45684;48.358;10.746;2024-02-04T13:22:18;25.40;;;24.43;;
10013;SDS011;45684;48.358;10.746;2024-02-04T13:24:46;46.97;;;45.10;;
10013;SDS011;45684;48.358;10.746;2024-02-04T13:27:14;48.67;;;46.67;;
10013;SDS011;45684;48.358;10.746;2024-02-04T13:29:43;30.57;;;29.13;;
10013;SDS011;45684;48.358;10.746;2024-02-04T13:32:11;24.40;;;23.50;;
10013;SDS011;45684;48.358;10.746;2024-02-04T13:34:39;44.97;;;43.20;;
10013;SDS011;45684;48.358;10.746;2024-02-04T13:37:07;46.07;;;44.20;;
10013;SDS011;45684;48.358;10.746;2024-02-04T13:39:37;43.70;;;41.90;;
10013;SDS011;45684;48.358;10.746;2024-02-04T13:42:05;65.53;;;62.87;;
10013;SDS011;45684;48.358;10.746;2024-02-04T13:44:33;111.13;;;106.77;;
10013;SDS011;45684;48.358;10.746;2024-02-04T13:47:01;100.43;;;96.63;;
10013;SDS011;45684;48.358;10.746;2024-02-04T13:49:28;94.93;;;91.30;;
10013;SDS011;45684;48.358;10.746;2024-02-04T13:51:56;152.13;;;146.13;;
10013;SDS011;45684;48.358;10.746;2024-02-04T13:54:24;179.70;;;172.70;;
10013;SDS011;45684;48.358;10.746;2024-02-04T13:56:53;185.10;;;177.83;;
10013;SDS011;45684;48.358;10.746;2024-02-04T13:59:21;191.57;;;184.00;;